Fairfield, Idaho
Current Conditions -  °F | °C
As of 10:47 AM on Friday 24 Oct 2014 (Local Time) from KSUN Reporting Station
Broken Clouds Broken Clouds  
Wind Chill: 50°   Ceiling: 9000
Heat Index: 50°   Visibility: 10mi
Dew Point: 45°   Wind: 7mph
Humidity: 82%   Direction: 300°WNW
Pressure: 30.19"   Gusts: NA
Location:  43.35°N, 114.79°W
Report Text: KSUN 241647Z 30006KT 10SM BKN090 10/07 A3019
Loading
Personal Weather Stations






























Interactive Weather Map
Tropical Storm Tracking
New forecast layout! Learn more

10-Day Weather Forecast

Advertisements
Track Severe Weather on mobile